Time;durP1;ratioP1;P1;durP2;ratioP2;P2;SDS_P1;SDS_P2;PMS_P1;PMS_P2;Temp;Humidity;BMP_temperature;BMP_pressure;BME280_temperature;BME280_humidity;BME280_pressure;Samples;Min_cycle;Max_cycle;Signal;HPM_P1;HPM_P2
2022/11/27 00:01:52;;;;;;;7.80;4.53;;;;;;;3.65;100.00;100067.75;4895982;29;20044;-82
2022/11/27 00:04:38;;;;;;;8.40;4.93;;;;;;;3.59;100.00;100064.41;4903965;29;20086;-81
2022/11/27 00:07:23;;;;;;;8.32;5.03;;;;;;;3.60;100.00;100069.56;4870142;29;20071;-81
2022/11/27 00:10:09;;;;;;;8.63;4.53;;;;;;;3.55;100.00;100071.38;4873941;29;21070;-81
2022/11/27 00:12:53;;;;;;;7.90;4.40;;;;;;;3.49;100.00;100074.09;4882264;29;20052;-82
2022/11/27 00:15:38;;;;;;;7.55;4.05;;;;;;;3.46;100.00;100080.19;4875826;29;20131;-85
2022/11/27 00:18:24;;;;;;;9.95;4.45;;;;;;;3.45;100.00;100078.47;4913200;29;20036;-88
2022/11/27 00:21:21;;;;;;;10.75;5.00;;;;;;;3.43;100.00;100077.63;4923876;29;20132;-89
2022/11/27 00:24:10;;;;;;;17.05;9.55;;;;;;;3.39;100.00;100078.59;4897696;29;20044;-81
2022/11/27 00:26:55;;;;;;;14.45;6.78;;;;;;;3.42;100.00;100083.72;4913838;29;20376;-82
2022/11/27 00:29:40;;;;;;;8.18;4.93;;;;;;;3.47;100.00;100073.25;4888076;29;20036;-81
2022/11/27 00:32:26;;;;;;;12.23;5.07;;;;;;;3.48;100.00;100082.75;4916539;29;20131;-82
2022/11/27 00:35:11;;;;;;;11.35;5.13;;;;;;;3.44;100.00;100077.59;4899712;29;20870;-82
2022/11/27 00:37:56;;;;;;;6.75;4.55;;;;;;;3.45;100.00;100084.53;4890281;29;20139;-81
2022/11/27 00:40:41;;;;;;;7.90;4.43;;;;;;;3.43;100.00;100090.59;4898642;29;20040;-83
2022/11/27 00:43:27;;;;;;;8.43;4.40;;;;;;;3.44;100.00;100087.97;4899749;29;20376;-83
2022/11/27 00:46:16;;;;;;;8.90;4.63;;;;;;;3.44;100.00;100094.91;4919468;29;20056;-83
2022/11/27 00:49:04;;;;;;;8.55;4.88;;;;;;;3.53;100.00;100091.28;4900208;29;20524;-82
2022/11/27 00:51:51;;;;;;;8.27;4.65;;;;;;;3.57;100.00;100091.19;4913188;29;20064;-81
2022/11/27 00:54:36;;;;;;;7.55;4.20;;;;;;;3.63;100.00;100091.97;4891618;29;20118;-82
2022/11/27 00:57:20;;;;;;;7.75;5.03;;;;;;;3.66;100.00;100091.91;4893961;29;20040;-81
2022/11/27 01:00:06;;;;;;;10.52;4.88;;;;;;;3.68;100.00;100097.94;4929965;29;20083;-82
2022/11/27 01:02:51;;;;;;;7.35;4.47;;;;;;;3.66;100.00;100102.28;4889025;29;20048;-81
2022/11/27 01:05:36;;;;;;;8.07;4.75;;;;;;;3.67;100.00;100097.06;4884739;29;20052;-81
2022/11/27 01:08:22;;;;;;;8.18;4.40;;;;;;;3.62;100.00;100091.13;4887579;29;20191;-81
2022/11/27 01:11:19;;;;;;;9.13;4.28;;;;;;;3.59;100.00;100091.16;4888313;29;20074;-82
2022/11/27 01:14:09;;;;;;;10.35;4.43;;;;;;;3.53;100.00;100091.28;4924402;29;20055;-82
2022/11/27 01:16:54;;;;;;;8.38;4.35;;;;;;;3.50;100.00;100088.75;4920503;29;20436;-81
2022/11/27 01:19:38;;;;;;;8.02;4.53;;;;;;;3.49;100.00;100090.50;4892301;29;20033;-81
2022/11/27 01:22:23;;;;;;;11.70;4.50;;;;;;;3.45;100.00;100091.44;4915083;29;20568;-82
2022/11/27 01:25:08;;;;;;;7.82;4.45;;;;;;;3.48;100.00;100086.19;4883951;29;20059;-80
2022/11/27 01:27:53;;;;;;;7.80;5.25;;;;;;;3.46;100.00;100098.31;4890278;29;20039;-82
2022/11/27 01:30:39;;;;;;;8.63;4.80;;;;;;;3.59;100.00;100098.13;4914267;29;20055;-81
2022/11/27 01:33:26;;;;;;;8.35;4.72;;;;;;;3.64;100.00;100093.69;4918139;29;20151;-81
2022/11/27 01:36:12;;;;;;;9.35;4.60;;;;;;;3.63;100.00;100099.75;4903587;29;20102;-81
2022/11/27 01:38:58;;;;;;;8.82;5.35;;;;;;;3.66;100.00;100102.28;4909406;29;20488;-81
2022/11/27 01:41:45;;;;;;;10.35;5.00;;;;;;;3.67;100.00;100101.41;4907218;29;20083;-83
2022/11/27 01:44:30;;;;;;;10.02;5.13;;;;;;;3.63;100.00;100094.56;4920637;29;20122;-81
2022/11/27 01:47:24;;;;;;;9.43;5.00;;;;;;;3.60;100.00;100089.44;4913971;29;20040;-81
2022/11/27 01:50:15;;;;;;;10.63;5.90;;;;;;;3.55;100.00;100092.13;4901399;29;20042;-81
2022/11/27 01:53:14;;;;;;;11.13;4.97;;;;;;;3.50;100.00;100081.84;4910869;29;20047;-84
2022/11/27 01:56:01;;;;;;;11.13;5.07;;;;;;;3.39;100.00;100082.03;4926413;29;20134;-81
2022/11/27 01:58:47;;;;;;;9.93;4.65;;;;;;;3.39;100.00;100079.47;4906229;29;20039;-82
2022/11/27 02:01:34;;;;;;;9.80;5.35;;;;;;;3.32;100.00;100072.66;4887232;29;20048;-82
2022/11/27 02:04:21;;;;;;;10.27;6.13;;;;;;;3.15;100.00;100073.78;4884652;29;20135;-80
2022/11/27 02:07:06;;;;;;;9.07;5.25;;;;;;;2.99;100.00;100073.19;4914681;29;20204;-81
2022/11/27 02:09:50;;;;;;;7.82;4.78;;;;;;;3.03;100.00;100069.69;4902632;29;20045;-82
2022/11/27 02:12:40;;;;;;;8.70;4.65;;;;;;;3.07;100.00;100075.66;4909883;29;20032;-82
2022/11/27 02:15:56;;;;;;;10.10;5.05;;;;;;;3.16;100.00;100074.66;4892300;29;20043;-83
2022/11/27 02:18:58;;;;;;;9.32;4.78;;;;;;;3.22;100.00;100074.56;4929165;29;20501;-80
2022/11/27 02:21:47;;;;;;;10.35;4.80;;;;;;;3.19;100.00;100084.97;4908865;29;20040;-80
2022/11/27 02:24:34;;;;;;;10.07;5.30;;;;;;;3.22;100.00;100078.88;4878964;29;20048;-80
2022/11/27 02:27:36;;;;;;;8.95;4.88;;;;;;;3.23;100.00;100078.88;4908789;29;20130;-80
2022/11/27 02:30:21;;;;;;;8.80;5.00;;;;;;;3.26;100.00;100077.94;4911100;29;20063;-82
2022/11/27 02:33:10;;;;;;;11.80;5.40;;;;;;;3.27;100.00;100077.94;4891274;29;20044;-83
2022/11/27 02:36:05;;;;;;;16.77;5.45;;;;;;;3.22;100.00;100087.50;4874072;29;20051;-82
2022/11/27 02:39:01;;;;;;;9.93;4.50;;;;;;;3.23;100.00;100089.22;4903638;29;20071;-82
2022/11/27 02:41:53;;;;;;;9.02;5.22;;;;;;;3.24;100.00;100085.75;4920073;29;21004;-85
2022/11/27 02:44:45;;;;;;;9.85;4.85;;;;;;;3.22;100.00;100090.09;4903285;29;20412;-81
2022/11/27 02:47:32;;;;;;;11.32;5.53;;;;;;;3.20;100.00;100089.25;4887453;29;20095;-84
2022/11/27 02:50:22;;;;;;;11.25;5.93;;;;;;;3.20;100.00;100084.94;4904690;29;20559;-82
2022/11/27 02:53:13;;;;;;;9.75;5.75;;;;;;;3.26;100.00;100086.59;4908251;29;20199;-80
2022/11/27 02:56:00;;;;;;;12.70;5.63;;;;;;;3.27;100.00;100087.41;4906416;29;20074;-82
2022/11/27 02:58:46;;;;;;;11.80;5.80;;;;;;;3.21;100.00;100085.81;4905661;29;20058;-81
2022/11/27 03:01:36;;;;;;;10.68;5.68;;;;;;;3.07;100.00;100084.28;4900854;29;20771;-81
2022/11/27 03:04:32;;;;;;;8.93;5.07;;;;;;;3.07;100.00;100083.44;4884128;29;20036;-81
2022/11/27 03:07:46;;;;;;;11.60;5.47;;;;;;;2.98;100.00;100073.22;4906783;29;20047;-82
2022/11/27 03:10:44;;;;;;;11.48;5.30;;;;;;;2.94;100.00;100075.88;4907248;29;20051;-85
2022/11/27 03:13:34;;;;;;;9.93;5.05;;;;;;;3.00;100.00;100076.66;4919048;29;20054;-83
2022/11/27 03:16:41;;;;;;;7.82;4.63;;;;;;;2.99;100.00;100077.53;4904014;29;20119;-81
2022/11/27 03:19:29;;;;;;;10.15;5.13;;;;;;;2.96;100.00;100073.25;4918715;29;20064;-81
2022/11/27 03:22:16;;;;;;;11.48;5.00;;;;;;;2.99;100.00;100070.63;4893065;29;20114;-82
2022/11/27 03:25:01;;;;;;;10.43;4.68;;;;;;;2.99;100.00;100068.03;4903792;29;20489;-86
2022/11/27 03:27:52;;;;;;;11.45;4.80;;;;;;;2.92;100.00;100069.84;4891787;29;20163;-82
2022/11/27 03:30:40;;;;;;;8.13;4.75;;;;;;;2.90;100.00;100069.03;4907106;29;20058;-82
2022/11/27 03:33:27;;;;;;;11.13;5.35;;;;;;;2.89;100.00;100066.47;4906258;29;20075;-82
2022/11/27 03:36:15;;;;;;;12.50;5.20;;;;;;;2.89;100.00;100056.13;4891843;29;20053;-82
2022/11/27 03:38:59;;;;;;;10.95;5.40;;;;;;;2.92;100.00;100058.66;4893433;29;20036;-82
2022/11/27 03:42:01;;;;;;;11.13;5.03;;;;;;;2.87;100.00;100052.69;4891035;29;20543;-81
2022/11/27 03:45:15;;;;;;;10.68;5.82;;;;;;;2.86;100.00;100058.75;4912351;29;20139;-81
2022/11/27 03:48:04;;;;;;;11.93;5.43;;;;;;;2.78;100.00;100046.78;4909690;29;20052;-81
2022/11/27 03:51:09;;;;;;;11.35;5.55;;;;;;;2.86;100.00;100041.47;4898760;29;20068;-82
2022/11/27 03:54:00;;;;;;;9.13;4.60;;;;;;;2.89;100.00;100040.59;4903531;29;20059;-82
2022/11/27 03:56:58;;;;;;;8.95;4.82;;;;;;;2.93;100.00;100040.50;4892471;29;20555;-83
2022/11/27 03:59:46;;;;;;;9.70;4.90;;;;;;;2.89;100.00;100035.41;4916680;29;20044;-81
2022/11/27 04:02:42;;;;;;;11.23;5.93;;;;;;;2.77;100.00;100029.56;4897604;29;20043;-81
2022/11/27 04:05:27;;;;;;;13.07;5.47;;;;;;;2.82;100.00;100029.47;4896667;29;20134;-80
2022/11/27 04:08:12;;;;;;;12.57;5.50;;;;;;;2.88;100.00;100025.91;4908655;29;20056;-81
2022/11/27 04:10:57;;;;;;;13.80;5.18;;;;;;;2.88;100.00;100026.78;4897429;29;20053;-81
2022/11/27 04:13:42;;;;;;;11.95;5.88;;;;;;;2.81;100.00;100032.94;4907522;29;20067;-81
2022/11/27 04:16:26;;;;;;;11.98;5.07;;;;;;;2.73;100.00;100027.88;4909308;29;20127;-83
2022/11/27 04:19:12;;;;;;;12.52;6.32;;;;;;;2.62;100.00;100027.19;4895005;29;20479;-81
2022/11/27 04:21:56;;;;;;;11.50;5.75;;;;;;;2.67;100.00;100030.56;4907238;29;20039;-81
2022/11/27 04:24:42;;;;;;;11.18;5.50;;;;;;;2.68;100.00;100029.69;4901948;29;20040;-81
2022/11/27 04:27:27;;;;;;;10.88;6.03;;;;;;;2.72;100.00;100039.13;4913778;29;20130;-82
2022/11/27 04:30:13;;;;;;;11.68;6.05;;;;;;;2.72;100.00;100036.53;4915226;29;20431;-82
2022/11/27 04:32:57;;;;;;;14.40;6.03;;;;;;;2.83;100.00;100034.63;4908118;29;20479;-84
2022/11/27 04:35:42;;;;;;;11.13;5.35;;;;;;;2.73;100.00;100046.00;4924222;29;20044;-81
2022/11/27 04:38:27;;;;;;;13.30;5.53;;;;;;;2.76;100.00;100035.59;4892401;29;20469;-81
2022/11/27 04:41:12;;;;;;;12.18;5.20;;;;;;;2.78;100.00;100036.44;4917678;29;20059;-82
2022/11/27 04:43:57;;;;;;;10.93;4.88;;;;;;;2.77;100.00;100039.91;4920899;29;20044;-81
2022/11/27 04:46:42;;;;;;;9.70;4.68;;;;;;;2.71;100.00;100038.25;4906468;29;20063;-81
2022/11/27 04:49:27;;;;;;;10.00;5.07;;;;;;;2.74;100.00;100036.50;4895323;29;20507;-81
2022/11/27 04:52:12;;;;;;;9.10;5.05;;;;;;;2.75;100.00;100033.03;4901683;29;20135;-80
2022/11/27 04:54:57;;;;;;;14.45;5.90;;;;;;;2.78;100.00;100032.97;4921666;29;20545;-81
2022/11/27 04:57:41;;;;;;;11.07;5.25;;;;;;;2.69;100.00;100036.59;4894883;29;20083;-81
2022/11/27 05:00:26;;;;;;;11.07;5.10;;;;;;;2.77;100.00;100028.69;4908937;29;20044;-81
2022/11/27 05:03:11;;;;;;;9.88;5.25;;;;;;;2.78;100.00;100030.38;4931151;29;20146;-80
2022/11/27 05:05:57;;;;;;;8.85;5.28;;;;;;;2.81;100.00;100026.03;4922296;29;20047;-81
2022/11/27 05:08:42;;;;;;;10.07;4.80;;;;;;;2.82;100.00;100027.72;4902461;29;20419;-82
2022/11/27 05:11:29;;;;;;;10.18;6.00;;;;;;;2.77;100.00;100015.75;4868950;29;20504;-83
2022/11/27 05:14:19;;;;;;;10.93;6.55;;;;;;;2.79;100.00;100016.59;4866997;29;20058;-82
2022/11/27 05:17:03;;;;;;;10.77;5.70;;;;;;;2.82;100.00;100008.78;4862199;29;20065;-82
2022/11/27 05:19:49;;;;;;;11.45;5.65;;;;;;;2.77;100.00;100005.41;4883282;29;20076;-81
2022/11/27 05:22:33;;;;;;;11.40;5.57;;;;;;;2.86;100.00;100007.00;4855946;29;20088;-83
2022/11/27 05:25:18;;;;;;;11.13;6.25;;;;;;;2.75;100.00;100015.78;4866417;29;20151;-83
2022/11/27 05:28:04;;;;;;;13.43;6.63;;;;;;;2.53;100.00;100013.50;4892884;29;20067;-85
2022/11/27 05:30:49;;;;;;;11.30;6.10;;;;;;;2.56;100.00;100022.97;4886769;29;20052;-86
2022/11/27 05:33:33;;;;;;;15.48;6.60;;;;;;;2.59;100.00;100021.19;4884358;29;20134;-84
2022/11/27 05:36:18;;;;;;;11.55;6.90;;;;;;;2.59;100.00;100012.56;4887858;29;20083;-81
2022/11/27 05:39:05;;;;;;;16.42;7.90;;;;;;;2.58;100.00;100016.88;4894705;29;20059;-81
2022/11/27 05:41:51;;;;;;;11.77;6.45;;;;;;;2.54;100.00;100019.56;4872391;29;20461;-81
2022/11/27 05:44:37;;;;;;;14.30;6.65;;;;;;;2.47;100.00;100016.19;4839096;29;20044;-82
2022/11/27 05:47:22;;;;;;;10.38;6.22;;;;;;;2.55;100.00;100016.94;4892696;29;20052;-82
2022/11/27 05:50:07;;;;;;;9.02;5.47;;;;;;;2.57;100.00;100012.59;4865510;29;20153;-82
2022/11/27 05:52:52;;;;;;;12.77;6.32;;;;;;;2.59;100.00;100013.41;4889740;29;20751;-83
2022/11/27 05:55:36;;;;;;;11.48;5.88;;;;;;;2.59;100.00;100021.19;4885091;29;20054;-82
2022/11/27 05:58:21;;;;;;;11.45;5.85;;;;;;;2.50;100.00;100015.31;4854288;29;20080;-81
2022/11/27 06:01:07;;;;;;;9.18;5.70;;;;;;;2.59;100.00;100021.19;4875404;29;20093;-81
2022/11/27 06:03:53;;;;;;;9.80;5.80;;;;;;;2.63;100.00;100021.16;4912273;29;20050;-82
2022/11/27 06:06:37;;;;;;;11.30;6.10;;;;;;;2.58;100.00;100023.78;4895016;29;20098;-79
2022/11/27 06:09:22;;;;;;;17.75;6.70;;;;;;;2.41;100.00;100035.25;4903309;29;20040;-82
2022/11/27 06:12:09;;;;;;;12.40;7.25;;;;;;;2.48;100.00;100024.81;4903954;29;20051;-82
2022/11/27 06:14:54;;;;;;;11.98;6.63;;;;;;;2.59;100.00;100031.53;4894679;29;20060;-84
2022/11/27 06:17:40;;;;;;;14.70;6.40;;;;;;;2.67;100.00;100030.56;4889771;29;20051;-81
2022/11/27 06:20:25;;;;;;;12.45;6.15;;;;;;;2.75;100.00;100038.22;4915052;29;20049;-81
2022/11/27 06:23:10;;;;;;;12.32;7.07;;;;;;;2.97;100.00;100048.22;4901693;29;20104;-83
2022/11/27 06:26:07;;;;;;;14.68;6.72;;;;;;;3.22;100.00;100040.88;4913072;29;20041;-83
2022/11/27 06:28:55;;;;;;;13.68;6.40;;;;;;;3.00;100.00;100043.84;4892763;29;20049;-82
2022/11/27 06:32:06;;;;;;;6.25;3.38;;;;;;;4.17;100.00;100041.66;4903712;29;20065;-81
2022/11/27 06:34:53;;;;;;;11.95;5.93;;;;;;;4.55;100.00;100041.66;4886696;29;20047;-80
2022/11/27 06:37:40;;;;;;;8.50;5.35;;;;;;;4.86;100.00;100041.81;4885944;29;20559;-83
2022/11/27 06:40:25;;;;;;;8.50;4.85;;;;;;;4.48;100.00;100041.84;4903239;29;20127;-83
2022/11/27 06:43:09;;;;;;;12.45;5.93;;;;;;;4.16;100.00;100042.50;4899111;29;20072;-80
2022/11/27 06:45:58;;;;;;;12.73;5.90;;;;;;;3.82;100.00;100043.22;4892265;29;20060;-82
2022/11/27 06:48:46;;;;;;;10.20;5.25;;;;;;;3.64;100.00;100050.47;4900473;29;20040;-79
2022/11/27 06:51:32;;;;;;;10.60;5.75;;;;;;;3.47;100.00;100049.94;4893573;29;20147;-80
2022/11/27 06:54:16;;;;;;;13.73;7.22;;;;;;;3.63;100.00;100051.38;4900852;29;20051;-79
2022/11/27 06:57:01;;;;;;;8.98;5.72;;;;;;;3.99;100.00;100048.06;4910582;29;20072;-82
2022/11/27 06:59:47;;;;;;;9.05;5.68;;;;;;;4.42;100.00;100055.81;4889952;29;20103;-82
2022/11/27 07:02:34;;;;;;;13.38;6.53;;;;;;;4.85;100.00;100061.75;4900402;29;20172;-81
2022/11/27 07:05:20;;;;;;;7.75;5.25;;;;;;;4.51;100.00;100068.59;4891210;29;20040;-82
2022/11/27 07:08:05;;;;;;;14.60;5.38;;;;;;;4.21;100.00;100049.34;4887003;29;20048;-81
2022/11/27 07:10:50;;;;;;;12.35;3.63;;;;;;;5.42;100.00;100062.06;4906049;29;20048;-80
2022/11/27 07:13:36;;;;;;;8.95;4.85;;;;;;;5.53;100.00;100048.75;4885599;29;20040;-79
2022/11/27 07:16:22;;;;;;;13.55;5.75;;;;;;;5.34;100.00;100068.38;4884348;29;20072;-80
2022/11/27 07:19:07;;;;;;;9.77;5.95;;;;;;;5.49;100.00;100059.28;4893319;23;20064;-80
2022/11/27 07:21:51;;;;;;;9.90;5.45;;;;;;;5.99;97.24;100055.34;4892305;29;20501;-81
2022/11/27 07:24:35;;;;;;;15.80;5.00;;;;;;;7.89;100.00;100054.44;4894486;29;20040;-78
2022/11/27 07:27:20;;;;;;;11.18;5.30;;;;;;;7.62;92.80;100064.09;4893178;29;20064;-81
2022/11/27 07:30:06;;;;;;;9.07;4.90;;;;;;;7.40;94.12;100062.25;4866708;29;20132;-81
2022/11/27 07:32:51;;;;;;;12.90;5.53;;;;;;;7.34;87.81;100062.47;4878668;29;20507;-80
2022/11/27 07:35:36;;;;;;;11.00;6.05;;;;;;;6.87;89.32;100064.00;4891632;29;20175;-81
2022/11/27 07:38:20;;;;;;;11.00;6.10;;;;;;;7.25;87.10;100068.81;4882060;29;20112;-81
2022/11/27 07:41:06;;;;;;;9.52;5.40;;;;;;;7.21;85.44;100062.88;4880690;29;20048;-81
2022/11/27 07:43:51;;;;;;;8.90;5.18;;;;;;;7.44;87.12;100063.81;4864707;29;20064;-81
2022/11/27 07:46:36;;;;;;;11.27;5.55;;;;;;;7.49;84.84;100056.69;4876844;29;20413;-82
2022/11/27 07:49:24;;;;;;;11.18;5.45;;;;;;;8.31;83.43;100065.06;4871201;29;20049;-80
2022/11/27 07:52:08;;;;;;;12.82;5.68;;;;;;;8.63;79.87;100064.75;4860139;29;20041;-80
2022/11/27 07:54:53;;;;;;;10.60;5.60;;;;;;;8.18;80.84;100059.44;4865202;29;20068;-82
2022/11/27 07:57:41;;;;;;;10.30;5.32;;;;;;;8.84;78.63;100063.03;4889828;29;20064;-86
2022/11/27 08:00:25;;;;;;;9.15;5.40;;;;;;;8.86;77.76;100055.13;4892451;29;20201;-81
2022/11/27 08:03:10;;;;;;;10.68;5.97;;;;;;;8.77;78.89;100056.34;4887697;29;20507;-81
2022/11/27 08:05:55;;;;;;;10.27;6.18;;;;;;;9.32;75.69;100056.75;4862115;29;20365;-84
2022/11/27 08:08:41;;;;;;;10.40;5.47;;;;;;;9.28;75.65;100049.94;4877514;29;20714;-83
2022/11/27 08:11:31;;;;;;;8.98;4.70;;;;;;;9.64;74.28;100043.16;4860840;29;20142;-83
2022/11/27 08:14:18;;;;;;;9.65;5.97;;;;;;;10.01;73.10;100045.88;4856745;29;20044;-83
2022/11/27 08:17:03;;;;;;;11.65;6.57;;;;;;;10.39;71.36;100038.03;4861689;29;20081;-83
2022/11/27 08:19:48;;;;;;;11.00;5.80;;;;;;;10.78;68.07;100043.22;4883753;29;20060;-83
2022/11/27 08:22:34;;;;;;;11.15;5.57;;;;;;;10.93;66.96;100044.22;4878679;29;20052;-83
2022/11/27 08:25:21;;;;;;;13.90;6.22;;;;;;;11.13;67.29;100043.22;4880779;29;20136;-84
2022/11/27 08:28:05;;;;;;;11.40;6.07;;;;;;;11.25;65.64;100043.50;4895046;29;20044;-82
2022/11/27 08:30:56;;;;;;;11.07;5.82;;;;;;;10.94;67.45;100044.16;4882870;29;20052;-84
2022/11/27 08:33:41;;;;;;;13.00;5.80;;;;;;;11.37;66.54;100049.91;4894912;29;20088;-85
2022/11/27 08:36:27;;;;;;;8.30;4.93;;;;;;;11.00;66.99;100036.91;4890262;29;20372;-82
2022/11/27 08:39:13;;;;;;;7.88;4.95;;;;;;;11.45;64.98;100040.72;4884834;29;20078;-83
2022/11/27 08:41:59;;;;;;;8.18;5.03;;;;;;;11.76;64.82;100040.03;4894251;29;20119;-82
2022/11/27 08:44:43;;;;;;;10.38;5.95;;;;;;;11.30;65.93;100046.75;4907732;29;20420;-83
2022/11/27 08:47:31;;;;;;;11.88;6.50;;;;;;;11.46;65.66;100039.78;4906761;29;20044;-82
2022/11/27 08:50:18;;;;;;;10.13;4.53;;;;;;;12.17;62.32;100041.38;4905460;29;20059;-82
2022/11/27 08:53:04;;;;;;;7.55;4.70;;;;;;;12.71;59.21;100044.56;4870284;29;20139;-83
2022/11/27 08:55:50;;;;;;;8.70;4.35;;;;;;;12.94;58.62;100048.50;4873451;29;20044;-83
2022/11/27 08:58:36;;;;;;;9.30;5.07;;;;;;;12.77;60.00;100054.72;4910057;29;20111;-83
2022/11/27 09:01:26;;;;;;;9.63;4.97;;;;;;;13.05;60.17;100059.25;4869785;29;20037;-82
2022/11/27 09:04:15;;;;;;;8.55;4.68;;;;;;;12.75;61.38;100048.69;4901198;29;20060;-82
2022/11/27 09:07:02;;;;;;;8.00;4.57;;;;;;;12.53;62.77;100044.69;4888905;29;20056;-86
2022/11/27 09:09:49;;;;;;;9.38;4.35;;;;;;;14.30;55.92;100037.72;4876001;29;20056;-83
2022/11/27 09:12:34;;;;;;;8.77;4.15;;;;;;;13.08;59.80;100046.81;4900594;29;20051;-84
2022/11/27 09:15:24;;;;;;;8.02;4.75;;;;;;;13.64;57.89;100051.47;4905992;29;20063;-85
2022/11/27 09:18:09;;;;;;;8.98;4.32;;;;;;;14.12;55.96;100042.38;4878930;29;20084;-84
2022/11/27 09:21:04;;;;;;;7.57;4.32;;;;;;;13.73;56.58;100036.88;4872849;29;20066;-84
2022/11/27 09:24:00;;;;;;;6.25;3.80;;;;;;;13.25;55.69;100045.84;4923468;29;20067;-84
2022/11/27 09:26:45;;;;;;;7.15;3.67;;;;;;;14.09;57.79;100035.53;4888196;29;20135;-83
2022/11/27 09:29:35;;;;;;;7.30;3.58;;;;;;;14.90;52.79;100032.19;4901642;29;20048;-83
2022/11/27 09:32:22;;;;;;;7.47;4.43;;;;;;;14.87;53.68;100027.06;4917446;29;21198;-83
2022/11/27 09:35:07;;;;;;;10.75;4.97;;;;;;;13.90;55.88;100027.94;4912151;29;20067;-83
2022/11/27 09:37:52;;;;;;;10.27;4.43;;;;;;;14.73;54.31;100028.81;4892194;29;20056;-83
2022/11/27 09:40:43;;;;;;;7.45;4.00;;;;;;;14.53;54.39;100024.84;4886064;29;20426;-83
2022/11/27 09:43:33;;;;;;;7.88;4.40;;;;;;;15.45;52.80;100015.31;4890400;29;20053;-87
2022/11/27 09:46:30;;;;;;;8.32;3.25;;;;;;;14.85;54.21;100006.06;4886314;29;20080;-82
2022/11/27 09:49:49;;;;;;;7.47;4.13;;;;;;;14.93;52.75;100007.38;4912679;29;20127;-84
2022/11/27 09:52:52;;;;;;;6.07;3.70;;;;;;;13.96;53.79;100003.84;4887706;29;20037;-82
2022/11/27 09:55:42;;;;;;;6.93;3.95;;;;;;;15.07;51.83;100007.28;4882737;29;20123;-82
2022/11/27 09:58:48;;;;;;;9.68;4.32;;;;;;;16.12;51.11;99989.53;4888649;29;20055;-84
2022/11/27 10:01:35;;;;;;;6.38;3.72;;;;;;;16.63;48.12;99991.09;4908009;29;20090;-80
2022/11/27 10:04:20;;;;;;;6.47;3.60;;;;;;;16.46;49.13;99991.50;4866880;29;20041;-86
2022/11/27 10:07:15;;;;;;;7.05;4.18;;;;;;;16.94;47.47;99993.22;4882801;29;20045;-84
2022/11/27 10:10:06;;;;;;;6.78;3.75;;;;;;;15.95;49.78;99986.28;4892800;29;20049;-84
2022/11/27 10:13:10;;;;;;;6.75;3.72;;;;;;;16.03;51.28;99969.06;4878530;29;20064;-83
2022/11/27 10:16:30;;;;;;;8.88;4.15;;;;;;;15.88;51.50;99972.66;4880048;29;20261;-84
2022/11/27 10:19:35;;;;;;;12.27;4.13;;;;;;;15.33;51.81;99967.69;4878313;29;20508;-86
2022/11/27 10:22:38;;;;;;;7.45;3.47;;;;;;;14.67;51.50;99963.31;4889166;29;20055;-83
2022/11/27 10:25:45;;;;;;;7.07;3.88;;;;;;;15.74;51.19;99954.31;4883197;29;20045;-84
2022/11/27 10:28:49;;;;;;;10.68;4.25;;;;;;;15.06;52.20;99942.28;4882576;29;20076;-83
2022/11/27 10:31:33;;;;;;;;;;;;;;;15.90;48.81;99946.13;4867650;29;20052;-83
2022/11/27 10:34:38;;;;;;;4.32;2.20;;;;;;;16.39;45.98;99938.22;4891828;29;19930;-83
2022/11/27 10:37:40;;;;;;;6.57;3.20;;;;;;;16.44;47.86;99930.78;4879280;29;20083;-81
2022/11/27 10:40:36;;;;;;;8.60;3.60;;;;;;;16.11;48.25;99934.97;4878973;29;20082;-84
2022/11/27 10:43:24;;;;;;;6.57;3.28;;;;;;;15.12;50.54;99941.00;4877778;29;20072;-81
2022/11/27 10:46:24;;;;;;;7.22;3.08;;;;;;;15.48;50.87;99934.09;4876411;29;20074;-82
2022/11/27 10:49:13;;;;;;;12.45;4.32;;;;;;;16.23;49.45;99935.88;4892664;29;20056;-83
2022/11/27 10:51:58;;;;;;;9.20;4.22;;;;;;;16.18;49.33;99928.28;4890608;29;20116;-83
2022/11/27 10:54:53;;;;;;;7.00;3.72;;;;;;;17.23;47.43;99925.78;4879222;29;20060;-84
2022/11/27 10:57:50;;;;;;;6.80;3.47;;;;;;;17.40;46.32;99928.91;4893197;29;20147;-83
2022/11/27 11:00:37;;;;;;;7.90;3.63;;;;;;;17.81;45.56;99919.44;4880076;29;20129;-86
2022/11/27 11:03:22;;;;;;;7.93;3.50;;;;;;;17.59;46.22;99923.81;4870100;29;20527;-81
2022/11/27 11:06:17;;;;;;;6.90;3.53;;;;;;;17.22;46.73;99922.28;4900597;29;20048;-81
2022/11/27 11:09:13;;;;;;;7.38;3.90;;;;;;;16.78;46.38;99926.56;4900089;29;20094;-82
2022/11/27 11:12:17;;;;;;;8.18;4.05;;;;;;;16.22;48.63;99919.16;4894243;29;20080;-86
2022/11/27 11:15:10;;;;;;;7.38;3.90;;;;;;;16.05;47.92;99917.78;4890728;29;20255;-85
2022/11/27 11:17:56;;;;;;;5.78;3.42;;;;;;;16.20;47.46;99910.53;4904783;29;20060;-82
2022/11/27 11:21:26;;;;;;;9.65;3.85;;;;;;;16.60;49.02;99901.38;4889069;29;20051;-84
2022/11/27 11:24:22;;;;;;;8.50;3.80;;;;;;;16.97;47.80;99904.81;4896207;29;20204;-81
2022/11/27 11:27:17;;;;;;;7.95;3.72;;;;;;;17.04;46.60;99900.72;4901437;29;20135;-82
2022/11/27 11:30:23;;;;;;;7.93;3.45;;;;;;;17.39;46.94;99900.72;4861169;29;20152;-81
2022/11/27 11:33:12;;;;;;;8.40;3.03;;;;;;;18.32;45.99;99897.72;4869384;29;20049;-82
2022/11/27 11:36:08;;;;;;;6.47;4.30;;;;;;;17.06;45.96;99890.84;4847498;29;20076;-82
2022/11/27 11:38:55;;;;;;;5.50;3.28;;;;;;;16.53;47.79;99894.88;4855057;29;20067;-83
2022/11/27 11:41:44;;;;;;;6.95;3.53;;;;;;;17.59;44.91;99889.38;4868038;29;20142;-82
2022/11/27 11:44:36;;;;;;;6.00;3.53;;;;;;;17.39;45.27;99885.69;4857087;29;20100;-84
2022/11/27 11:47:24;;;;;;;5.68;3.20;;;;;;;17.30;44.45;99886.44;4884122;29;20120;-82
2022/11/27 11:50:21;;;;;;;8.82;4.43;;;;;;;16.45;46.47;99887.50;4839655;29;20110;-83
2022/11/27 11:53:24;;;;;;;6.47;3.83;;;;;;;15.58;47.54;99886.75;4831857;29;20180;-86
2022/11/27 11:56:24;;;;;;;6.38;3.80;;;;;;;15.74;47.25;99877.72;4852620;29;20053;-83
2022/11/27 11:59:46;;;;;;;6.43;3.55;;;;;;;15.17;49.53;99875.53;4834577;29;20064;-82
2022/11/27 12:02:37;;;;;;;6.68;3.97;;;;;;;14.93;49.52;99865.75;4805548;29;20046;-83
2022/11/27 12:05:38;;;;;;;7.40;3.92;;;;;;;15.88;48.04;99866.97;4838349;29;20085;-83
2022/11/27 12:08:34;;;;;;;7.18;3.72;;;;;;;17.07;45.25;99852.81;4813055;29;20527;-81
2022/11/27 12:11:33;;;;;;;7.15;3.50;;;;;;;17.22;44.70;99856.09;4838605;29;20145;-82
2022/11/27 12:14:36;;;;;;;6.32;3.78;;;;;;;16.72;46.47;99859.94;4813754;29;20134;-80
2022/11/27 12:17:56;;;;;;;5.38;3.30;;;;;;;16.19;46.61;99858.59;4839544;29;20133;-79
2022/11/27 12:20:57;;;;;;;4.60;3.03;;;;;;;16.23;46.00;99857.41;4840301;29;20117;-82
2022/11/27 12:23:45;;;;;;;8.45;3.05;;;;;;;17.22;43.54;99848.16;4838868;29;20051;-82
2022/11/27 12:26:59;;;;;;;7.97;3.58;;;;;;;15.55;47.70;99854.44;4829909;29;20734;-84
2022/11/27 12:29:56;;;;;;;6.03;2.97;;;;;;;15.84;46.98;99851.47;4840433;29;20564;-83
2022/11/27 12:32:46;;;;;;;5.30;3.15;;;;;;;15.47;48.12;99852.34;4841532;29;20128;-82
2022/11/27 12:35:35;;;;;;;6.93;3.15;;;;;;;15.47;47.50;99841.78;4853244;29;20417;-83
2022/11/27 12:38:41;;;;;;;6.05;3.63;;;;;;;14.38;50.33;99840.38;4857307;29;20057;-81
2022/11/27 12:41:57;;;;;;;6.95;3.15;;;;;;;14.62;51.62;99839.66;4858561;29;20061;-80
2022/11/27 12:45:10;;;;;;;7.55;4.00;;;;;;;15.23;49.97;99840.78;4865238;29;20045;-83
2022/11/27 12:48:06;;;;;;;7.78;3.58;;;;;;;16.58;45.86;99841.63;4875543;29;20061;-81
2022/11/27 12:51:06;;;;;;;5.75;3.47;;;;;;;16.97;44.99;99831.53;4864397;29;20097;-82
2022/11/27 12:54:21;;;;;;;7.03;3.50;;;;;;;16.84;45.08;99836.94;4862995;29;20117;-83
2022/11/27 12:57:14;;;;;;;7.90;3.40;;;;;;;15.86;46.61;99834.53;4862093;29;20064;-84
2022/11/27 13:00:06;;;;;;;5.57;3.22;;;;;;;15.88;46.83;99837.06;4874932;29;20097;-82
2022/11/27 13:03:26;;;;;;;6.93;3.15;;;;;;;16.34;47.20;99835.44;4876384;29;20125;-83
2022/11/27 13:06:18;;;;;;;6.78;3.58;;;;;;;16.38;46.78;99831.63;4866988;29;20041;-79
2022/11/27 13:09:14;;;;;;;4.20;2.60;;;;;;;17.10;45.34;99827.97;4878769;29;20072;-83
2022/11/27 13:12:00;;;;;;;5.45;2.60;;;;;;;16.40;45.81;99826.22;4866795;29;20068;-82